sensor_id;sensor_type;location;lat;lon;timestamp;P1;durP1;ratioP1;P2;durP2;ratioP2
36391;SDS011;22639;42.690;23.356;2023-02-12T00:00:57;13.43;;;7.73;;
36391;SDS011;22639;42.690;23.356;2023-02-12T00:03:22;15.73;;;9.00;;
36391;SDS011;22639;42.690;23.356;2023-02-12T00:05:47;16.60;;;8.97;;
36391;SDS011;22639;42.690;23.356;2023-02-12T00:08:12;15.30;;;8.77;;
36391;SDS011;22639;42.690;23.356;2023-02-12T00:10:40;15.47;;;9.87;;
36391;SDS011;22639;42.690;23.356;2023-02-12T00:13:07;14.73;;;9.30;;
36391;SDS011;22639;42.690;23.356;2023-02-12T00:15:32;15.77;;;9.10;;
36391;SDS011;22639;42.690;23.356;2023-02-12T00:17:58;10.40;;;8.23;;
36391;SDS011;22639;42.690;23.356;2023-02-12T00:20:23;15.53;;;10.30;;
36391;SDS011;22639;42.690;23.356;2023-02-12T00:22:49;16.07;;;7.73;;
36391;SDS011;22639;42.690;23.356;2023-02-12T00:25:14;17.30;;;10.07;;
36391;SDS011;22639;42.690;23.356;2023-02-12T00:27:39;14.93;;;10.47;;
36391;SDS011;22639;42.690;23.356;2023-02-12T00:30:05;15.27;;;10.30;;
36391;SDS011;22639;42.690;23.356;2023-02-12T00:32:30;17.37;;;11.53;;
36391;SDS011;22639;42.690;23.356;2023-02-12T00:34:55;16.53;;;11.13;;
36391;SDS011;22639;42.690;23.356;2023-02-12T00:37:20;18.50;;;9.63;;
36391;SDS011;22639;42.690;23.356;2023-02-12T00:39:46;10.67;;;7.60;;
36391;SDS011;22639;42.690;23.356;2023-02-12T00:42:11;11.43;;;8.13;;
36391;SDS011;22639;42.690;23.356;2023-02-12T00:44:36;16.73;;;10.03;;
36391;SDS011;22639;42.690;23.356;2023-02-12T00:47:02;13.87;;;8.83;;
36391;SDS011;22639;42.690;23.356;2023-02-12T00:49:28;15.03;;;9.57;;
36391;SDS011;22639;42.690;23.356;2023-02-12T00:51:53;15.03;;;9.87;;
36391;SDS011;22639;42.690;23.356;2023-02-12T00:54:18;16.63;;;9.23;;
36391;SDS011;22639;42.690;23.356;2023-02-12T00:56:43;17.77;;;10.40;;
36391;SDS011;22639;42.690;23.356;2023-02-12T00:59:09;12.97;;;9.27;;
36391;SDS011;22639;42.690;23.356;2023-02-12T01:01:34;19.23;;;10.67;;
36391;SDS011;22639;42.690;23.356;2023-02-12T01:03:59;14.03;;;9.87;;
36391;SDS011;22639;42.690;23.356;2023-02-12T01:06:24;16.77;;;9.60;;
36391;SDS011;22639;42.690;23.356;2023-02-12T01:08:50;13.80;;;9.43;;
36391;SDS011;22639;42.690;23.356;2023-02-12T01:11:16;14.80;;;9.67;;
36391;SDS011;22639;42.690;23.356;2023-02-12T01:13:41;16.03;;;10.53;;
36391;SDS011;22639;42.690;23.356;2023-02-12T01:16:08;21.57;;;11.30;;
36391;SDS011;22639;42.690;23.356;2023-02-12T01:18:35;12.47;;;10.20;;
36391;SDS011;22639;42.690;23.356;2023-02-12T01:21:00;15.83;;;10.97;;
36391;SDS011;22639;42.690;23.356;2023-02-12T01:23:25;17.03;;;10.97;;
36391;SDS011;22639;42.690;23.356;2023-02-12T01:25:51;22.13;;;12.37;;
36391;SDS011;22639;42.690;23.356;2023-02-12T01:28:16;26.77;;;13.77;;
36391;SDS011;22639;42.690;23.356;2023-02-12T01:30:41;20.47;;;12.53;;
36391;SDS011;22639;42.690;23.356;2023-02-12T01:33:06;20.60;;;13.00;;
36391;SDS011;22639;42.690;23.356;2023-02-12T01:35:32;20.17;;;12.67;;
36391;SDS011;22639;42.690;23.356;2023-02-12T01:37:57;20.50;;;13.00;;
36391;SDS011;22639;42.690;23.356;2023-02-12T01:40:23;18.23;;;13.17;;
36391;SDS011;22639;42.690;23.356;2023-02-12T01:42:48;21.57;;;13.17;;
36391;SDS011;22639;42.690;23.356;2023-02-12T01:47:42;15.73;;;11.00;;
36391;SDS011;22639;42.690;23.356;2023-02-12T01:50:08;16.93;;;11.00;;
36391;SDS011;22639;42.690;23.356;2023-02-12T01:52:35;17.17;;;11.87;;
36391;SDS011;22639;42.690;23.356;2023-02-12T01:55:03;18.23;;;12.07;;
36391;SDS011;22639;42.690;23.356;2023-02-12T01:57:29;22.03;;;13.13;;
36391;SDS011;22639;42.690;23.356;2023-02-12T01:59:56;19.97;;;12.77;;
36391;SDS011;22639;42.690;23.356;2023-02-12T02:02:22;20.03;;;11.47;;
36391;SDS011;22639;42.690;23.356;2023-02-12T02:04:53;17.60;;;11.63;;
36391;SDS011;22639;42.690;23.356;2023-02-12T02:07:19;20.10;;;12.53;;
36391;SDS011;22639;42.690;23.356;2023-02-12T02:09:44;20.03;;;12.00;;
36391;SDS011;22639;42.690;23.356;2023-02-12T02:12:10;20.80;;;12.73;;
36391;SDS011;22639;42.690;23.356;2023-02-12T02:14:55;18.23;;;12.57;;
36391;SDS011;22639;42.690;23.356;2023-02-12T02:24:53;21.80;;;15.43;;
36391;SDS011;22639;42.690;23.356;2023-02-12T02:27:23;26.23;;;15.03;;
36391;SDS011;22639;42.690;23.356;2023-02-12T02:30:33;21.23;;;13.83;;
36391;SDS011;22639;42.690;23.356;2023-02-12T02:35:25;28.77;;;15.30;;
36391;SDS011;22639;42.690;23.356;2023-02-12T02:40:21;23.00;;;15.13;;
36391;SDS011;22639;42.690;23.356;2023-02-12T02:42:55;19.87;;;14.63;;
36391;SDS011;22639;42.690;23.356;2023-02-12T02:45:30;20.07;;;13.73;;
36391;SDS011;22639;42.690;23.356;2023-02-12T02:47:59;22.37;;;15.43;;
36391;SDS011;22639;42.690;23.356;2023-02-12T02:50:29;22.10;;;14.83;;
36391;SDS011;22639;42.690;23.356;2023-02-12T02:53:01;22.97;;;14.70;;
36391;SDS011;22639;42.690;23.356;2023-02-12T02:55:28;28.57;;;15.70;;
36391;SDS011;22639;42.690;23.356;2023-02-12T02:58:00;24.27;;;14.87;;
36391;SDS011;22639;42.690;23.356;2023-02-12T03:00:47;26.23;;;15.40;;
36391;SDS011;22639;42.690;23.356;2023-02-12T03:03:16;24.67;;;15.03;;
36391;SDS011;22639;42.690;23.356;2023-02-12T03:05:50;21.23;;;14.17;;
36391;SDS011;22639;42.690;23.356;2023-02-12T03:13:54;19.80;;;14.47;;
36391;SDS011;22639;42.690;23.356;2023-02-12T03:16:23;20.73;;;13.40;;
36391;SDS011;22639;42.690;23.356;2023-02-12T03:21:43;23.97;;;15.27;;
36391;SDS011;22639;42.690;23.356;2023-02-12T03:24:18;22.70;;;14.23;;
36391;SDS011;22639;42.690;23.356;2023-02-12T03:26:53;23.17;;;14.70;;
36391;SDS011;22639;42.690;23.356;2023-02-12T03:29:20;25.93;;;15.43;;
36391;SDS011;22639;42.690;23.356;2023-02-12T03:37:06;20.63;;;14.97;;
36391;SDS011;22639;42.690;23.356;2023-02-12T03:44:52;19.97;;;13.40;;
36391;SDS011;22639;42.690;23.356;2023-02-12T03:52:32;21.63;;;14.37;;
36391;SDS011;22639;42.690;23.356;2023-02-12T03:54:58;23.83;;;14.97;;
36391;SDS011;22639;42.690;23.356;2023-02-12T03:57:24;23.13;;;15.37;;
36391;SDS011;22639;42.690;23.356;2023-02-12T03:59:54;25.63;;;14.97;;
36391;SDS011;22639;42.690;23.356;2023-02-12T04:02:19;24.87;;;14.30;;
36391;SDS011;22639;42.690;23.356;2023-02-12T04:04:45;20.63;;;13.20;;
36391;SDS011;22639;42.690;23.356;2023-02-12T04:07:11;22.23;;;13.97;;
36391;SDS011;22639;42.690;23.356;2023-02-12T04:09:36;24.50;;;15.43;;
36391;SDS011;22639;42.690;23.356;2023-02-12T04:12:20;24.67;;;14.73;;
36391;SDS011;22639;42.690;23.356;2023-02-12T04:18:06;26.50;;;16.20;;
36391;SDS011;22639;42.690;23.356;2023-02-12T04:20:36;21.43;;;13.33;;
36391;SDS011;22639;42.690;23.356;2023-02-12T04:30:47;27.17;;;16.17;;
36391;SDS011;22639;42.690;23.356;2023-02-12T04:33:17;24.73;;;15.50;;
36391;SDS011;22639;42.690;23.356;2023-02-12T04:35:49;23.20;;;15.23;;
36391;SDS011;22639;42.690;23.356;2023-02-12T04:38:20;20.57;;;13.73;;
36391;SDS011;22639;42.690;23.356;2023-02-12T04:40:46;24.37;;;16.63;;
36391;SDS011;22639;42.690;23.356;2023-02-12T04:43:12;25.80;;;15.97;;
36391;SDS011;22639;42.690;23.356;2023-02-12T04:45:38;25.07;;;16.43;;
36391;SDS011;22639;42.690;23.356;2023-02-12T04:48:03;28.23;;;16.43;;
36391;SDS011;22639;42.690;23.356;2023-02-12T04:50:39;28.77;;;17.13;;
36391;SDS011;22639;42.690;23.356;2023-02-12T04:53:04;26.00;;;16.70;;
36391;SDS011;22639;42.690;23.356;2023-02-12T04:55:30;27.83;;;18.17;;
36391;SDS011;22639;42.690;23.356;2023-02-12T04:57:55;24.20;;;15.87;;
36391;SDS011;22639;42.690;23.356;2023-02-12T05:00:20;26.33;;;16.90;;
36391;SDS011;22639;42.690;23.356;2023-02-12T05:02:46;26.07;;;15.57;;
36391;SDS011;22639;42.690;23.356;2023-02-12T05:05:11;27.83;;;16.83;;
36391;SDS011;22639;42.690;23.356;2023-02-12T05:07:36;25.40;;;15.77;;
36391;SDS011;22639;42.690;23.356;2023-02-12T05:10:02;24.50;;;15.07;;
36391;SDS011;22639;42.690;23.356;2023-02-12T05:12:27;19.17;;;12.40;;
36391;SDS011;22639;42.690;23.356;2023-02-12T05:14:52;24.13;;;13.83;;
36391;SDS011;22639;42.690;23.356;2023-02-12T05:17:17;28.73;;;15.60;;
36391;SDS011;22639;42.690;23.356;2023-02-12T05:19:46;20.57;;;12.13;;
36391;SDS011;22639;42.690;23.356;2023-02-12T05:22:11;16.03;;;9.97;;
36391;SDS011;22639;42.690;23.356;2023-02-12T05:24:36;21.23;;;12.77;;
36391;SDS011;22639;42.690;23.356;2023-02-12T05:27:02;21.37;;;12.67;;
36391;SDS011;22639;42.690;23.356;2023-02-12T05:29:27;18.27;;;12.87;;
36391;SDS011;22639;42.690;23.356;2023-02-12T05:31:52;15.27;;;10.00;;
36391;SDS011;22639;42.690;23.356;2023-02-12T05:34:17;17.63;;;11.17;;
36391;SDS011;22639;42.690;23.356;2023-02-12T05:39:28;14.93;;;10.40;;
36391;SDS011;22639;42.690;23.356;2023-02-12T05:41:53;15.33;;;11.13;;
36391;SDS011;22639;42.690;23.356;2023-02-12T05:44:18;20.70;;;13.23;;
36391;SDS011;22639;42.690;23.356;2023-02-12T05:46:43;22.03;;;14.03;;
36391;SDS011;22639;42.690;23.356;2023-02-12T05:49:09;17.97;;;11.23;;
36391;SDS011;22639;42.690;23.356;2023-02-12T05:51:34;20.87;;;13.47;;
36391;SDS011;22639;42.690;23.356;2023-02-12T05:54:00;20.97;;;12.67;;
36391;SDS011;22639;42.690;23.356;2023-02-12T05:56:29;29.03;;;14.00;;
36391;SDS011;22639;42.690;23.356;2023-02-12T05:58:59;17.70;;;11.13;;
36391;SDS011;22639;42.690;23.356;2023-02-12T06:01:30;22.83;;;13.70;;
36391;SDS011;22639;42.690;23.356;2023-02-12T06:03:57;21.17;;;14.27;;
36391;SDS011;22639;42.690;23.356;2023-02-12T06:06:23;19.87;;;11.57;;
36391;SDS011;22639;42.690;23.356;2023-02-12T06:08:49;18.57;;;12.23;;
36391;SDS011;22639;42.690;23.356;2023-02-12T06:11:15;22.50;;;11.73;;
36391;SDS011;22639;42.690;23.356;2023-02-12T06:13:40;21.27;;;13.73;;
36391;SDS011;22639;42.690;23.356;2023-02-12T06:16:06;21.30;;;13.73;;
36391;SDS011;22639;42.690;23.356;2023-02-12T06:18:33;23.73;;;13.87;;
36391;SDS011;22639;42.690;23.356;2023-02-12T06:20:59;19.63;;;13.30;;
36391;SDS011;22639;42.690;23.356;2023-02-12T06:23:24;17.70;;;12.03;;
36391;SDS011;22639;42.690;23.356;2023-02-12T06:25:50;18.67;;;13.57;;
36391;SDS011;22639;42.690;23.356;2023-02-12T06:28:15;17.53;;;11.17;;
36391;SDS011;22639;42.690;23.356;2023-02-12T06:30:41;20.00;;;12.53;;
36391;SDS011;22639;42.690;23.356;2023-02-12T06:33:15;19.00;;;12.57;;
36391;SDS011;22639;42.690;23.356;2023-02-12T06:35:41;20.20;;;12.17;;
36391;SDS011;22639;42.690;23.356;2023-02-12T06:38:08;15.30;;;10.30;;
36391;SDS011;22639;42.690;23.356;2023-02-12T06:40:35;21.30;;;13.27;;
36391;SDS011;22639;42.690;23.356;2023-02-12T06:43:00;19.50;;;13.33;;
36391;SDS011;22639;42.690;23.356;2023-02-12T06:45:25;18.97;;;9.70;;
36391;SDS011;22639;42.690;23.356;2023-02-12T06:47:51;20.13;;;12.73;;
36391;SDS011;22639;42.690;23.356;2023-02-12T06:50:16;19.23;;;11.73;;
36391;SDS011;22639;42.690;23.356;2023-02-12T06:52:41;22.10;;;13.13;;
36391;SDS011;22639;42.690;23.356;2023-02-12T06:55:07;23.23;;;14.10;;
36391;SDS011;22639;42.690;23.356;2023-02-12T06:57:32;21.70;;;13.17;;
36391;SDS011;22639;42.690;23.356;2023-02-12T06:59:57;25.40;;;13.73;;
36391;SDS011;22639;42.690;23.356;2023-02-12T07:02:23;15.13;;;11.07;;
36391;SDS011;22639;42.690;23.356;2023-02-12T07:04:48;21.53;;;13.03;;
36391;SDS011;22639;42.690;23.356;2023-02-12T07:07:13;21.47;;;13.90;;
36391;SDS011;22639;42.690;23.356;2023-02-12T07:09:38;20.80;;;11.90;;
36391;SDS011;22639;42.690;23.356;2023-02-12T07:12:04;22.97;;;14.93;;
36391;SDS011;22639;42.690;23.356;2023-02-12T07:14:29;19.10;;;12.70;;
36391;SDS011;22639;42.690;23.356;2023-02-12T07:16:56;20.47;;;11.93;;
36391;SDS011;22639;42.690;23.356;2023-02-12T07:19:21;21.57;;;13.03;;
36391;SDS011;22639;42.690;23.356;2023-02-12T07:21:47;17.10;;;11.63;;
36391;SDS011;22639;42.690;23.356;2023-02-12T07:24:12;21.43;;;13.57;;
36391;SDS011;22639;42.690;23.356;2023-02-12T07:26:39;23.37;;;12.67;;
36391;SDS011;22639;42.690;23.356;2023-02-12T07:29:04;20.93;;;13.87;;
36391;SDS011;22639;42.690;23.356;2023-02-12T07:31:30;20.90;;;13.47;;
36391;SDS011;22639;42.690;23.356;2023-02-12T07:33:56;19.13;;;13.10;;
36391;SDS011;22639;42.690;23.356;2023-02-12T07:36:21;27.90;;;14.63;;
36391;SDS011;22639;42.690;23.356;2023-02-12T07:38:47;22.07;;;14.43;;
36391;SDS011;22639;42.690;23.356;2023-02-12T07:41:22;20.50;;;14.20;;
36391;SDS011;22639;42.690;23.356;2023-02-12T07:43:51;21.73;;;14.17;;
36391;SDS011;22639;42.690;23.356;2023-02-12T07:46:18;21.93;;;13.90;;
36391;SDS011;22639;42.690;23.356;2023-02-12T07:48:44;26.07;;;14.40;;
36391;SDS011;22639;42.690;23.356;2023-02-12T07:51:10;23.77;;;14.90;;
36391;SDS011;22639;42.690;23.356;2023-02-12T07:53:36;22.33;;;15.03;;
36391;SDS011;22639;42.690;23.356;2023-02-12T07:56:09;24.77;;;16.20;;
36391;SDS011;22639;42.690;23.356;2023-02-12T07:58:34;23.53;;;15.43;;
36391;SDS011;22639;42.690;23.356;2023-02-12T08:01:09;23.17;;;13.50;;
36391;SDS011;22639;42.690;23.356;2023-02-12T08:03:34;22.97;;;15.00;;
36391;SDS011;22639;42.690;23.356;2023-02-12T08:05:59;18.07;;;11.50;;
36391;SDS011;22639;42.690;23.356;2023-02-12T08:08:24;26.40;;;16.63;;
36391;SDS011;22639;42.690;23.356;2023-02-12T08:10:50;19.50;;;14.70;;
36391;SDS011;22639;42.690;23.356;2023-02-12T08:13:15;28.40;;;15.67;;
36391;SDS011;22639;42.690;23.356;2023-02-12T08:15:40;28.30;;;15.93;;
36391;SDS011;22639;42.690;23.356;2023-02-12T08:18:05;26.60;;;16.40;;
36391;SDS011;22639;42.690;23.356;2023-02-12T08:20:32;26.77;;;15.67;;
36391;SDS011;22639;42.690;23.356;2023-02-12T08:22:57;15.43;;;11.33;;
36391;SDS011;22639;42.690;23.356;2023-02-12T08:25:23;19.70;;;12.20;;
36391;SDS011;22639;42.690;23.356;2023-02-12T08:27:48;25.03;;;16.87;;
36391;SDS011;22639;42.690;23.356;2023-02-12T08:30:13;25.77;;;17.53;;
36391;SDS011;22639;42.690;23.356;2023-02-12T08:32:38;23.23;;;16.63;;
36391;SDS011;22639;42.690;23.356;2023-02-12T08:35:04;26.27;;;14.30;;
36391;SDS011;22639;42.690;23.356;2023-02-12T08:37:29;25.83;;;17.13;;
36391;SDS011;22639;42.690;23.356;2023-02-12T08:39:55;23.43;;;15.30;;
36391;SDS011;22639;42.690;23.356;2023-02-12T08:42:20;27.77;;;18.27;;
36391;SDS011;22639;42.690;23.356;2023-02-12T08:44:45;25.00;;;16.93;;
36391;SDS011;22639;42.690;23.356;2023-02-12T08:47:10;28.43;;;18.37;;
36391;SDS011;22639;42.690;23.356;2023-02-12T08:49:36;27.07;;;17.97;;
36391;SDS011;22639;42.690;23.356;2023-02-12T08:52:01;25.10;;;17.77;;
36391;SDS011;22639;42.690;23.356;2023-02-12T08:54:28;29.17;;;18.47;;
36391;SDS011;22639;42.690;23.356;2023-02-12T08:56:58;27.93;;;16.97;;
36391;SDS011;22639;42.690;23.356;2023-02-12T08:59:24;26.73;;;18.70;;
36391;SDS011;22639;42.690;23.356;2023-02-12T09:01:50;27.10;;;17.17;;
36391;SDS011;22639;42.690;23.356;2023-02-12T09:04:17;26.43;;;19.43;;
36391;SDS011;22639;42.690;23.356;2023-02-12T09:06:44;29.43;;;19.37;;
36391;SDS011;22639;42.690;23.356;2023-02-12T09:09:09;33.00;;;20.70;;
36391;SDS011;22639;42.690;23.356;2023-02-12T09:11:35;30.97;;;19.53;;
36391;SDS011;22639;42.690;23.356;2023-02-12T09:14:02;28.00;;;19.17;;
36391;SDS011;22639;42.690;23.356;2023-02-12T09:16:28;24.40;;;17.40;;
36391;SDS011;22639;42.690;23.356;2023-02-12T09:18:54;25.90;;;18.03;;
36391;SDS011;22639;42.690;23.356;2023-02-12T09:21:19;22.00;;;13.63;;
36391;SDS011;22639;42.690;23.356;2023-02-12T09:23:45;29.00;;;19.83;;
36391;SDS011;22639;42.690;23.356;2023-02-12T09:26:14;28.57;;;19.73;;
36391;SDS011;22639;42.690;23.356;2023-02-12T09:28:40;29.50;;;19.87;;
36391;SDS011;22639;42.690;23.356;2023-02-12T09:31:12;33.63;;;21.90;;
36391;SDS011;22639;42.690;23.356;2023-02-12T09:33:38;24.40;;;16.50;;
36391;SDS011;22639;42.690;23.356;2023-02-12T09:36:04;30.27;;;20.83;;
36391;SDS011;22639;42.690;23.356;2023-02-12T09:38:30;29.80;;;20.00;;
36391;SDS011;22639;42.690;23.356;2023-02-12T09:41:04;29.43;;;19.50;;
36391;SDS011;22639;42.690;23.356;2023-02-12T09:43:47;29.73;;;20.53;;
36391;SDS011;22639;42.690;23.356;2023-02-12T09:49:07;31.43;;;19.97;;
36391;SDS011;22639;42.690;23.356;2023-02-12T09:51:34;35.53;;;18.17;;
36391;SDS011;22639;42.690;23.356;2023-02-12T09:54:22;28.40;;;19.73;;
36391;SDS011;22639;42.690;23.356;2023-02-12T09:56:53;32.07;;;20.70;;
36391;SDS011;22639;42.690;23.356;2023-02-12T09:59:29;34.53;;;21.63;;
36391;SDS011;22639;42.690;23.356;2023-02-12T10:01:56;31.77;;;19.80;;
36391;SDS011;22639;42.690;23.356;2023-02-12T10:04:22;27.73;;;18.73;;
36391;SDS011;22639;42.690;23.356;2023-02-12T10:06:50;29.23;;;20.87;;
36391;SDS011;22639;42.690;23.356;2023-02-12T10:12:12;34.23;;;20.63;;
36391;SDS011;22639;42.690;23.356;2023-02-12T10:27:56;33.97;;;21.20;;
36391;SDS011;22639;42.690;23.356;2023-02-12T10:30:58;35.93;;;21.73;;
36391;SDS011;22639;42.690;23.356;2023-02-12T10:33:58;32.80;;;22.77;;
36391;SDS011;22639;42.690;23.356;2023-02-12T10:36:17;28.30;;;21.10;;
36391;SDS011;22639;42.690;23.356;2023-02-12T10:38:45;34.10;;;22.20;;
36391;SDS011;22639;42.690;23.356;2023-02-12T10:41:12;32.83;;;22.07;;
36391;SDS011;22639;42.690;23.356;2023-02-12T10:43:39;32.10;;;22.80;;
36391;SDS011;22639;42.690;23.356;2023-02-12T10:46:04;26.80;;;21.00;;
36391;SDS011;22639;42.690;23.356;2023-02-12T10:48:37;33.30;;;22.40;;
36391;SDS011;22639;42.690;23.356;2023-02-12T10:53:35;30.10;;;20.20;;
36391;SDS011;22639;42.690;23.356;2023-02-12T10:58:38;43.00;;;22.73;;
36391;SDS011;22639;42.690;23.356;2023-02-12T11:01:03;38.80;;;24.63;;
36391;SDS011;22639;42.690;23.356;2023-02-12T11:03:30;34.00;;;22.77;;
36391;SDS011;22639;42.690;23.356;2023-02-12T11:06:08;39.40;;;24.23;;
36391;SDS011;22639;42.690;23.356;2023-02-12T11:08:35;34.53;;;23.63;;
36391;SDS011;22639;42.690;23.356;2023-02-12T11:11:08;32.27;;;21.70;;
36391;SDS011;22639;42.690;23.356;2023-02-12T11:13:34;37.37;;;24.23;;
36391;SDS011;22639;42.690;23.356;2023-02-12T11:15:59;34.27;;;23.97;;
36391;SDS011;22639;42.690;23.356;2023-02-12T11:18:26;38.67;;;24.60;;
36391;SDS011;22639;42.690;23.356;2023-02-12T11:25:59;40.80;;;26.80;;
36391;SDS011;22639;42.690;23.356;2023-02-12T11:28:25;36.90;;;23.93;;
36391;SDS011;22639;42.690;23.356;2023-02-12T11:35:48;32.90;;;22.47;;
36391;SDS011;22639;42.690;23.356;2023-02-12T11:38:17;39.00;;;25.97;;
36391;SDS011;22639;42.690;23.356;2023-02-12T11:40:45;32.63;;;21.23;;
36391;SDS011;22639;42.690;23.356;2023-02-12T11:43:13;30.47;;;21.10;;
36391;SDS011;22639;42.690;23.356;2023-02-12T11:45:41;30.37;;;22.00;;
36391;SDS011;22639;42.690;23.356;2023-02-12T11:48:18;34.77;;;22.80;;
36391;SDS011;22639;42.690;23.356;2023-02-12T11:50:48;38.00;;;24.57;;
36391;SDS011;22639;42.690;23.356;2023-02-12T11:53:23;37.67;;;23.13;;
36391;SDS011;22639;42.690;23.356;2023-02-12T11:56:05;35.77;;;23.67;;
36391;SDS011;22639;42.690;23.356;2023-02-12T11:58:31;40.00;;;25.00;;
36391;SDS011;22639;42.690;23.356;2023-02-12T12:06:21;37.47;;;22.43;;
36391;SDS011;22639;42.690;23.356;2023-02-12T12:08:55;34.73;;;23.13;;
36391;SDS011;22639;42.690;23.356;2023-02-12T12:11:24;32.87;;;23.27;;
36391;SDS011;22639;42.690;23.356;2023-02-12T12:14:05;36.17;;;25.17;;
36391;SDS011;22639;42.690;23.356;2023-02-12T12:16:35;39.40;;;23.67;;
36391;SDS011;22639;42.690;23.356;2023-02-12T12:19:24;35.53;;;23.77;;
36391;SDS011;22639;42.690;23.356;2023-02-12T12:27:16;37.67;;;24.07;;
36391;SDS011;22639;42.690;23.356;2023-02-12T12:30:12;29.90;;;21.27;;
36391;SDS011;22639;42.690;23.356;2023-02-12T12:32:40;31.90;;;21.80;;
36391;SDS011;22639;42.690;23.356;2023-02-12T12:35:09;33.63;;;22.53;;
36391;SDS011;22639;42.690;23.356;2023-02-12T12:37:48;34.23;;;23.57;;
36391;SDS011;22639;42.690;23.356;2023-02-12T12:40:25;34.43;;;21.97;;
36391;SDS011;22639;42.690;23.356;2023-02-12T12:43:14;46.50;;;25.57;;
36391;SDS011;22639;42.690;23.356;2023-02-12T13:09:21;39.20;;;25.17;;
36391;SDS011;22639;42.690;23.356;2023-02-12T13:14:20;32.77;;;22.80;;
36391;SDS011;22639;42.690;23.356;2023-02-12T13:16:48;35.07;;;23.87;;
36391;SDS011;22639;42.690;23.356;2023-02-12T13:29:00;41.90;;;25.70;;
36391;SDS011;22639;42.690;23.356;2023-02-12T13:31:29;33.80;;;23.83;;
36391;SDS011;22639;42.690;23.356;2023-02-12T13:33:58;37.40;;;23.30;;
36391;SDS011;22639;42.690;23.356;2023-02-12T13:36:26;34.50;;;23.53;;
36391;SDS011;22639;42.690;23.356;2023-02-12T13:38:55;33.10;;;23.73;;
36391;SDS011;22639;42.690;23.356;2023-02-12T13:41:20;35.07;;;23.87;;
36391;SDS011;22639;42.690;23.356;2023-02-12T13:44:00;43.33;;;26.20;;
36391;SDS011;22639;42.690;23.356;2023-02-12T13:46:48;28.83;;;21.27;;
36391;SDS011;22639;42.690;23.356;2023-02-12T13:49:24;33.87;;;21.07;;
36391;SDS011;22639;42.690;23.356;2023-02-12T13:51:58;36.70;;;23.97;;
36391;SDS011;22639;42.690;23.356;2023-02-12T13:54:37;34.77;;;22.57;;
36391;SDS011;22639;42.690;23.356;2023-02-12T13:57:08;35.53;;;23.53;;
36391;SDS011;22639;42.690;23.356;2023-02-12T14:04:27;33.97;;;22.73;;
36391;SDS011;22639;42.690;23.356;2023-02-12T14:06:57;35.97;;;23.10;;
36391;SDS011;22639;42.690;23.356;2023-02-12T14:09:28;37.13;;;25.33;;
36391;SDS011;22639;42.690;23.356;2023-02-12T14:11:54;39.23;;;25.73;;
36391;SDS011;22639;42.690;23.356;2023-02-12T14:14:30;40.03;;;25.50;;
36391;SDS011;22639;42.690;23.356;2023-02-12T14:16:56;34.70;;;24.40;;
36391;SDS011;22639;42.690;23.356;2023-02-12T14:22:13;42.63;;;26.80;;
36391;SDS011;22639;42.690;23.356;2023-02-12T14:24:55;42.23;;;27.27;;
36391;SDS011;22639;42.690;23.356;2023-02-12T14:27:42;41.80;;;27.47;;
36391;SDS011;22639;42.690;23.356;2023-02-12T14:35:29;38.53;;;25.97;;
36391;SDS011;22639;42.690;23.356;2023-02-12T14:40:44;37.43;;;24.73;;
36391;SDS011;22639;42.690;23.356;2023-02-12T14:45:55;35.13;;;22.80;;
36391;SDS011;22639;42.690;23.356;2023-02-12T14:51:05;40.03;;;25.27;;
36391;SDS011;22639;42.690;23.356;2023-02-12T14:53:31;36.87;;;26.53;;
36391;SDS011;22639;42.690;23.356;2023-02-12T14:55:58;39.40;;;26.80;;
36391;SDS011;22639;42.690;23.356;2023-02-12T14:58:24;41.23;;;26.73;;
36391;SDS011;22639;42.690;23.356;2023-02-12T15:00:51;41.40;;;26.90;;
36391;SDS011;22639;42.690;23.356;2023-02-12T15:03:28;38.90;;;26.10;;
36391;SDS011;22639;42.690;23.356;2023-02-12T15:10:48;37.63;;;25.20;;
36391;SDS011;22639;42.690;23.356;2023-02-12T15:15:50;41.17;;;27.33;;
36391;SDS011;22639;42.690;23.356;2023-02-12T15:18:19;37.27;;;24.73;;
36391;SDS011;22639;42.690;23.356;2023-02-12T15:20:50;39.53;;;26.40;;
36391;SDS011;22639;42.690;23.356;2023-02-12T15:26:03;39.67;;;26.10;;
36391;SDS011;22639;42.690;23.356;2023-02-12T15:28:29;39.70;;;27.57;;
36391;SDS011;22639;42.690;23.356;2023-02-12T15:30:57;43.40;;;30.30;;
36391;SDS011;22639;42.690;23.356;2023-02-12T15:33:30;42.37;;;27.37;;
36391;SDS011;22639;42.690;23.356;2023-02-12T15:35:56;41.17;;;28.10;;
36391;SDS011;22639;42.690;23.356;2023-02-12T15:38:40;46.30;;;31.00;;
36391;SDS011;22639;42.690;23.356;2023-02-12T15:41:06;42.73;;;28.17;;
36391;SDS011;22639;42.690;23.356;2023-02-12T15:43:32;43.07;;;28.23;;
36391;SDS011;22639;42.690;23.356;2023-02-12T15:46:02;45.27;;;29.90;;
36391;SDS011;22639;42.690;23.356;2023-02-12T15:48:29;44.07;;;29.10;;
36391;SDS011;22639;42.690;23.356;2023-02-12T15:53:39;47.47;;;29.77;;
36391;SDS011;22639;42.690;23.356;2023-02-12T15:56:09;47.80;;;30.93;;
36391;SDS011;22639;42.690;23.356;2023-02-12T16:01:02;45.90;;;31.43;;
36391;SDS011;22639;42.690;23.356;2023-02-12T16:03:29;49.20;;;30.97;;
36391;SDS011;22639;42.690;23.356;2023-02-12T16:06:05;43.60;;;28.00;;
36391;SDS011;22639;42.690;23.356;2023-02-12T16:08:35;51.70;;;30.57;;
36391;SDS011;22639;42.690;23.356;2023-02-12T16:11:00;48.67;;;31.50;;
36391;SDS011;22639;42.690;23.356;2023-02-12T16:13:37;45.77;;;28.13;;
36391;SDS011;22639;42.690;23.356;2023-02-12T16:18:37;53.97;;;32.93;;
36391;SDS011;22639;42.690;23.356;2023-02-12T16:21:16;50.40;;;33.33;;
36391;SDS011;22639;42.690;23.356;2023-02-12T16:23:43;48.83;;;33.80;;
36391;SDS011;22639;42.690;23.356;2023-02-12T16:26:14;55.77;;;33.90;;
36391;SDS011;22639;42.690;23.356;2023-02-12T16:28:40;46.50;;;31.97;;
36391;SDS011;22639;42.690;23.356;2023-02-12T16:31:11;56.07;;;33.87;;
36391;SDS011;22639;42.690;23.356;2023-02-12T16:46:30;54.53;;;32.90;;
36391;SDS011;22639;42.690;23.356;2023-02-12T16:48:56;51.83;;;34.80;;
36391;SDS011;22639;42.690;23.356;2023-02-12T16:51:24;50.50;;;33.00;;
36391;SDS011;22639;42.690;23.356;2023-02-12T16:53:50;52.10;;;34.03;;
36391;SDS011;22639;42.690;23.356;2023-02-12T16:56:19;52.37;;;34.77;;
36391;SDS011;22639;42.690;23.356;2023-02-12T16:58:49;50.47;;;32.77;;
36391;SDS011;22639;42.690;23.356;2023-02-12T17:01:32;54.93;;;34.50;;
36391;SDS011;22639;42.690;23.356;2023-02-12T17:03:58;61.47;;;36.67;;
36391;SDS011;22639;42.690;23.356;2023-02-12T17:06:24;51.00;;;34.73;;
36391;SDS011;22639;42.690;23.356;2023-02-12T17:08:50;52.27;;;34.27;;
36391;SDS011;22639;42.690;23.356;2023-02-12T17:11:16;50.87;;;33.57;;
36391;SDS011;22639;42.690;23.356;2023-02-12T17:13:45;54.80;;;35.43;;
36391;SDS011;22639;42.690;23.356;2023-02-12T17:16:11;56.23;;;35.40;;
36391;SDS011;22639;42.690;23.356;2023-02-12T17:18:36;54.63;;;34.77;;
36391;SDS011;22639;42.690;23.356;2023-02-12T17:21:04;64.27;;;40.73;;